Time;durP1;ratioP1;P1;durP2;ratioP2;P2;SDS_P1;SDS_P2;PMS_P1;PMS_P2;Temp;Humidity;BMP_temperature;BMP_pressure;BME280_temperature;BME280_humidity;BME280_pressure;Samples;Min_cycle;Max_cycle;Signal;HPM_P1;HPM_P2
2023/05/24 00:01:08;;;;;;;1.52;0.20;;;7.40;99.90;;;;;;5046888;28;20024;-78
2023/05/24 00:03:38;;;;;;;2.55;0.35;;;7.40;99.90;;;;;;5013102;28;20021;-79
2023/05/24 00:06:05;;;;;;;3.75;0.28;;;7.40;99.90;;;;;;5028745;28;20025;-80
2023/05/24 00:08:32;;;;;;;3.53;0.20;;;7.30;99.90;;;;;;5027365;28;20033;-79
2023/05/24 00:10:58;;;;;;;2.45;0.30;;;7.30;99.90;;;;;;5014955;28;20123;-79
2023/05/24 00:13:24;;;;;;;3.70;0.30;;;7.20;99.90;;;;;;5021324;28;20167;-81
2023/05/24 00:15:50;;;;;;;2.92;0.22;;;7.20;99.90;;;;;;5014036;28;20462;-80
2023/05/24 00:18:18;;;;;;;3.72;0.40;;;7.20;99.90;;;;;;5047484;28;20033;-82
2023/05/24 00:20:44;;;;;;;2.00;0.20;;;7.10;99.90;;;;;;5021115;28;20025;-78
2023/05/24 00:23:09;;;;;;;2.05;0.20;;;7.10;99.90;;;;;;5047833;28;20529;-82
2023/05/24 00:25:35;;;;;;;3.65;0.30;;;7.00;99.90;;;;;;5048007;28;20023;-79
2023/05/24 00:28:01;;;;;;;2.50;0.20;;;7.00;99.90;;;;;;5031756;28;20158;-78
2023/05/24 00:30:26;;;;;;;3.53;0.30;;;7.00;99.90;;;;;;5026455;28;20500;-78
2023/05/24 00:32:54;;;;;;;1.75;0.30;;;7.00;99.90;;;;;;5032967;28;20027;-82
2023/05/24 00:35:20;;;;;;;2.00;0.30;;;7.10;99.90;;;;;;5032428;28;20111;-82
2023/05/24 00:37:46;;;;;;;5.43;0.30;;;7.10;99.90;;;;;;5029774;28;20066;-83
2023/05/24 00:40:15;;;;;;;1.75;0.30;;;7.10;99.90;;;;;;5032325;28;20048;-83
2023/05/24 00:42:40;;;;;;;3.53;0.30;;;7.00;99.90;;;;;;5026333;28;20110;-83
2023/05/24 00:45:07;;;;;;;3.83;0.28;;;6.90;99.90;;;;;;5025807;28;20102;-82
2023/05/24 00:47:34;;;;;;;4.18;0.30;;;6.90;99.90;;;;;;5021892;28;20036;-81
2023/05/24 00:50:00;;;;;;;2.17;0.20;;;6.80;99.90;;;;;;5015916;28;20472;-83
2023/05/24 00:52:26;;;;;;;5.82;0.40;;;6.80;99.90;;;;;;5031383;28;20424;-79
2023/05/24 00:54:53;;;;;;;2.72;0.30;;;6.80;99.90;;;;;;5032990;28;20166;-80
2023/05/24 00:57:20;;;;;;;3.60;0.30;;;6.70;99.90;;;;;;5032194;28;20191;-79
2023/05/24 00:59:50;;;;;;;3.38;0.30;;;6.80;99.90;;;;;;5022026;28;20079;-80
2023/05/24 01:02:17;;;;;;;5.78;0.30;;;6.80;99.90;;;;;;5014888;28;20029;-78
2023/05/24 01:04:43;;;;;;;4.10;0.40;;;6.70;99.90;;;;;;5041272;28;20028;-79
2023/05/24 01:07:25;;;;;;;5.63;0.40;;;6.70;99.90;;;;;;5031849;28;20036;-83
2023/05/24 01:10:02;;;;;;;4.80;0.95;;;6.80;99.90;;;;;;5043237;28;20029;-79
2023/05/24 01:12:42;;;;;;;2.50;0.30;;;6.50;99.90;;;;;;5015225;28;20054;-82
2023/05/24 01:15:29;;;;;;;4.72;0.63;;;6.60;99.90;;;;;;5029138;28;20021;-80
2023/05/24 01:18:10;;;;;;;2.72;0.40;;;6.60;99.90;;;;;;5023930;28;20033;-81
2023/05/24 01:20:38;;;;;;;2.50;0.28;;;6.60;99.90;;;;;;5042869;28;20028;-81
2023/05/24 01:23:16;;;;;;;4.53;0.30;;;6.50;99.90;;;;;;5021546;28;20549;-80
2023/05/24 01:25:54;;;;;;;4.90;0.30;;;6.60;99.90;;;;;;5027089;28;20024;-79
2023/05/24 01:28:21;;;;;;;2.58;0.30;;;6.60;99.90;;;;;;5030930;28;20025;-83
2023/05/24 01:30:46;;;;;;;1.13;0.20;;;6.50;99.90;;;;;;5014162;28;20416;-78
2023/05/24 01:33:13;;;;;;;3.95;0.30;;;6.50;99.90;;;;;;5015050;28;20036;-78
2023/05/24 01:35:41;;;;;;;2.00;0.30;;;6.50;99.90;;;;;;5023238;28;20471;-79
2023/05/24 01:38:07;;;;;;;3.08;0.30;;;6.50;99.90;;;;;;5023975;28;20037;-78
2023/05/24 01:40:34;;;;;;;2.15;0.30;;;6.60;99.90;;;;;;5019723;28;20028;-80
2023/05/24 01:43:30;;;;;;;4.65;0.57;;;6.50;99.90;;;;;;5014014;28;20057;-81
2023/05/24 01:46:24;;;;;;;3.03;0.50;;;6.40;99.90;;;;;;5010247;28;20488;-78
2023/05/24 01:48:52;;;;;;;1.40;0.38;;;6.40;99.90;;;;;;5026537;28;20029;-78
2023/05/24 01:51:22;;;;;;;3.92;0.40;;;6.40;99.90;;;;;;5030146;28;20355;-79
2023/05/24 01:53:49;;;;;;;2.17;0.20;;;6.40;99.90;;;;;;5011828;28;20505;-81
2023/05/24 01:56:18;;;;;;;3.78;0.40;;;6.40;99.90;;;;;;5032015;28;20424;-79
2023/05/24 01:58:46;;;;;;;3.83;0.30;;;6.30;99.90;;;;;;5042978;28;20021;-79
2023/05/24 02:01:13;;;;;;;6.63;0.65;;;6.30;99.90;;;;;;5014964;28;20882;-79
2023/05/24 02:03:39;;;;;;;3.17;0.30;;;6.20;99.90;;;;;;5014329;28;20029;-79
2023/05/24 02:06:07;;;;;;;2.83;0.40;;;6.20;99.90;;;;;;5042486;28;20025;-80
2023/05/24 02:08:32;;;;;;;2.50;0.30;;;6.30;99.90;;;;;;5026883;28;20053;-82
2023/05/24 02:10:58;;;;;;;4.10;0.60;;;6.20;99.90;;;;;;5015231;28;20077;-84
2023/05/24 02:13:24;;;;;;;2.92;0.40;;;6.20;99.90;;;;;;5031710;28;20079;-83
2023/05/24 02:15:52;;;;;;;2.88;0.30;;;6.30;99.90;;;;;;5040821;28;20040;-83
2023/05/24 02:18:18;;;;;;;5.70;0.40;;;6.20;99.90;;;;;;5026332;28;20033;-82
2023/05/24 02:20:44;;;;;;;4.40;0.40;;;6.20;99.90;;;;;;5044916;28;20021;-79
2023/05/24 02:23:09;;;;;;;4.35;0.35;;;6.10;99.90;;;;;;5029952;28;20047;-79
2023/05/24 02:25:36;;;;;;;1.75;0.30;;;6.10;99.90;;;;;;5023107;28;20056;-81
2023/05/24 02:28:01;;;;;;;2.53;0.30;;;6.00;99.90;;;;;;5022223;28;20397;-80
2023/05/24 02:30:27;;;;;;;3.83;0.68;;;6.10;99.90;;;;;;5044133;28;20108;-78
2023/05/24 02:32:53;;;;;;;4.03;0.40;;;6.10;99.90;;;;;;5027539;28;20071;-79
2023/05/24 02:35:19;;;;;;;5.60;0.50;;;6.10;99.90;;;;;;5020494;28;20017;-80
2023/05/24 02:37:45;;;;;;;5.72;0.50;;;6.10;99.90;;;;;;5029147;28;20416;-80
2023/05/24 02:40:11;;;;;;;2.65;0.30;;;6.10;99.90;;;;;;5026712;28;20045;-78
2023/05/24 02:42:37;;;;;;;3.83;0.40;;;6.10;99.90;;;;;;5043276;28;20030;-79
2023/05/24 02:45:03;;;;;;;5.22;0.50;;;6.10;99.90;;;;;;5030239;28;20041;-82
2023/05/24 02:47:29;;;;;;;4.63;0.50;;;6.10;99.90;;;;;;5011782;28;20446;-82
2023/05/24 02:49:55;;;;;;;5.13;0.60;;;6.10;99.90;;;;;;5044092;28;20025;-78
2023/05/24 02:52:22;;;;;;;3.58;0.30;;;6.00;99.90;;;;;;5042451;28;20030;-79
2023/05/24 02:54:51;;;;;;;1.30;0.30;;;6.10;99.90;;;;;;5030287;28;20053;-79
2023/05/24 02:57:19;;;;;;;4.40;0.30;;;6.10;99.90;;;;;;5030138;28;20118;-79
2023/05/24 02:59:45;;;;;;;4.35;0.40;;;6.10;99.90;;;;;;5028537;28;20029;-78
2023/05/24 03:02:14;;;;;;;4.15;0.40;;;6.10;99.90;;;;;;5007642;28;20037;-83
2023/05/24 03:04:40;;;;;;;6.07;0.40;;;6.00;99.90;;;;;;5044557;28;20025;-82
2023/05/24 03:07:09;;;;;;;6.30;0.63;;;6.00;99.90;;;;;;5011179;28;20025;-83
2023/05/24 03:09:35;;;;;;;3.72;0.40;;;6.00;99.90;;;;;;5025758;28;20417;-82
2023/05/24 03:12:00;;;;;;;2.85;0.40;;;6.00;99.90;;;;;;5011384;28;20033;-80
2023/05/24 03:14:29;;;;;;;2.53;0.40;;;6.00;99.90;;;;;;5030457;28;20017;-78
2023/05/24 03:16:55;;;;;;;5.60;0.30;;;6.00;99.90;;;;;;5037592;28;20032;-80
2023/05/24 03:19:21;;;;;;;4.40;0.40;;;6.00;99.90;;;;;;5030388;28;20029;-82
2023/05/24 03:21:47;;;;;;;4.32;0.40;;;6.00;99.90;;;;;;5014001;28;20127;-83
2023/05/24 03:24:13;;;;;;;3.50;0.43;;;5.90;99.90;;;;;;5029899;28;20141;-83
2023/05/24 03:26:39;;;;;;;2.75;0.40;;;6.00;99.90;;;;;;5029129;28;20029;-80
2023/05/24 03:29:06;;;;;;;2.15;0.40;;;6.00;99.90;;;;;;5028174;28;20029;-82
2023/05/24 03:31:35;;;;;;;2.13;0.50;;;5.90;99.90;;;;;;5012974;28;20021;-83
2023/05/24 03:34:01;;;;;;;4.55;0.40;;;5.90;99.90;;;;;;5030204;28;20037;-82
2023/05/24 03:36:28;;;;;;;2.38;0.40;;;6.00;99.90;;;;;;5020155;28;20440;-80
2023/05/24 03:38:56;;;;;;;3.97;0.30;;;5.80;99.90;;;;;;5042539;28;20265;-80
2023/05/24 03:41:22;;;;;;;3.85;0.40;;;5.80;99.90;;;;;;5030432;28;20040;-84
2023/05/24 03:43:48;;;;;;;4.47;0.50;;;5.90;99.90;;;;;;5032227;28;20212;-83
2023/05/24 03:46:16;;;;;;;2.20;0.35;;;5.90;99.90;;;;;;5015906;28;20029;-83
2023/05/24 03:48:42;;;;;;;3.97;0.50;;;5.90;99.90;;;;;;5034718;28;20032;-82
2023/05/24 03:51:08;;;;;;;5.70;0.40;;;5.90;99.90;;;;;;5017434;28;20040;-83
2023/05/24 03:53:34;;;;;;;2.70;0.40;;;5.90;99.90;;;;;;5023951;28;20027;-82
2023/05/24 03:56:00;;;;;;;3.90;0.43;;;5.90;99.90;;;;;;5023104;28;20048;-84
2023/05/24 03:58:25;;;;;;;2.97;0.40;;;5.90;99.90;;;;;;5016074;28;20060;-83
2023/05/24 04:00:51;;;;;;;2.47;0.40;;;5.90;99.90;;;;;;5029427;28;20025;-83
2023/05/24 04:03:18;;;;;;;4.70;0.57;;;6.00;99.90;;;;;;5034469;28;20150;-83
2023/05/24 04:05:45;;;;;;;2.92;0.50;;;6.10;99.90;;;;;;5015655;28;20117;-81
2023/05/24 04:08:13;;;;;;;4.20;0.30;;;6.20;99.90;;;;;;5024290;28;20033;-83
2023/05/24 04:10:39;;;;;;;4.32;0.45;;;6.30;99.90;;;;;;5013955;28;20018;-84
2023/05/24 04:13:04;;;;;;;3.25;0.35;;;6.40;99.90;;;;;;5016287;28;20028;-83
2023/05/24 04:15:35;;;;;;;1.67;0.30;;;6.30;99.90;;;;;;5028626;28;20040;-82
2023/05/24 04:18:01;;;;;;;4.72;0.50;;;6.40;99.90;;;;;;5030828;28;20133;-83
2023/05/24 04:20:28;;;;;;;3.42;0.38;;;6.30;99.90;;;;;;5024996;28;20032;-83
2023/05/24 04:22:54;;;;;;;3.47;0.50;;;6.40;99.90;;;;;;5035685;28;20062;-80
2023/05/24 04:25:21;;;;;;;2.83;0.65;;;6.40;99.90;;;;;;5031389;28;20025;-84
2023/05/24 04:27:47;;;;;;;3.13;0.50;;;6.40;99.90;;;;;;5046256;28;20033;-83
2023/05/24 04:30:17;;;;;;;1.85;0.57;;;6.50;99.90;;;;;;5028470;28;20031;-83
2023/05/24 04:32:46;;;;;;;3.70;0.40;;;6.70;99.90;;;;;;5030814;28;20043;-83
2023/05/24 04:35:12;;;;;;;2.50;0.40;;;6.70;99.90;;;;;;5030711;28;20736;-82
2023/05/24 04:37:38;;;;;;;3.78;0.80;;;6.80;99.90;;;;;;5029005;28;20040;-84
2023/05/24 04:40:06;;;;;;;2.33;0.43;;;6.80;99.90;;;;;;5014906;28;20030;-84
2023/05/24 04:42:33;;;;;;;4.18;0.40;;;6.90;99.90;;;;;;5038267;28;20043;-82
2023/05/24 04:44:58;;;;;;;3.15;0.40;;;7.00;99.90;;;;;;5032914;28;20061;-82
2023/05/24 04:47:24;;;;;;;4.07;0.40;;;7.20;99.90;;;;;;5047171;28;20527;-80
2023/05/24 04:49:50;;;;;;;5.90;1.02;;;7.30;99.90;;;;;;5037906;28;20029;-84
2023/05/24 04:52:17;;;;;;;7.15;0.95;;;7.50;99.90;;;;;;5032395;28;20033;-81
2023/05/24 04:54:43;;;;;;;8.30;1.42;;;7.50;99.90;;;;;;5045199;28;20025;-82
2023/05/24 04:57:08;;;;;;;10.10;1.40;;;7.60;99.90;;;;;;5021951;28;20033;-82
2023/05/24 04:59:34;;;;;;;10.98;1.73;;;7.60;99.90;;;;;;5013789;28;20026;-81
2023/05/24 05:02:00;;;;;;;7.50;1.48;;;7.60;99.90;;;;;;5031154;28;20028;-80
2023/05/24 05:04:25;;;;;;;10.75;1.40;;;7.70;99.90;;;;;;5036152;28;20033;-79
2023/05/24 05:06:51;;;;;;;11.70;2.15;;;7.80;99.90;;;;;;5037510;28;20096;-81
2023/05/24 05:09:17;;;;;;;10.23;1.55;;;7.90;99.90;;;;;;5029178;28;20033;-80
2023/05/24 05:11:45;;;;;;;12.40;1.98;;;8.00;99.90;;;;;;5013918;28;20028;-80
2023/05/24 05:14:11;;;;;;;10.32;1.92;;;8.10;99.90;;;;;;5028283;28;20040;-80
2023/05/24 05:16:37;;;;;;;14.05;1.85;;;8.10;99.90;;;;;;5029462;28;20020;-83
2023/05/24 05:19:04;;;;;;;9.35;1.52;;;8.10;99.90;;;;;;5046183;28;20037;-81
2023/05/24 05:21:31;;;;;;;11.55;2.20;;;8.20;99.90;;;;;;5012828;28;20029;-81
2023/05/24 05:24:01;;;;;;;11.73;2.10;;;8.30;99.90;;;;;;5039059;28;20021;-82
2023/05/24 05:26:27;;;;;;;7.63;1.33;;;8.30;99.90;;;;;;5024133;28;20504;-79
2023/05/24 05:28:56;;;;;;;13.18;1.95;;;8.40;99.90;;;;;;5019982;28;20295;-82
2023/05/24 05:31:22;;;;;;;13.65;2.15;;;8.40;99.90;;;;;;5031529;28;20021;-82
2023/05/24 05:33:48;;;;;;;12.05;2.28;;;8.50;99.90;;;;;;5030967;28;20028;-82
2023/05/24 05:36:15;;;;;;;7.88;1.65;;;8.60;99.90;;;;;;5044671;28;20096;-82
2023/05/24 05:38:40;;;;;;;13.10;2.55;;;8.70;99.90;;;;;;5028132;28;20033;-82
2023/05/24 05:41:07;;;;;;;8.98;1.85;;;8.60;99.90;;;;;;5031814;28;20043;-80
2023/05/24 05:43:33;;;;;;;8.05;1.55;;;8.70;99.90;;;;;;5024825;28;20071;-83
2023/05/24 05:45:59;;;;;;;10.35;1.90;;;8.80;99.90;;;;;;5046311;28;20537;-82
2023/05/24 05:48:25;;;;;;;7.65;1.70;;;9.00;99.90;;;;;;5026983;28;20056;-80
2023/05/24 05:50:51;;;;;;;16.25;3.13;;;9.20;99.90;;;;;;5019798;28;20060;-81
2023/05/24 05:53:17;;;;;;;10.52;2.42;;;9.20;99.90;;;;;;5029829;28;20109;-80
2023/05/24 05:55:42;;;;;;;14.50;2.28;;;9.20;99.90;;;;;;5043707;28;20098;-82
2023/05/24 05:58:08;;;;;;;11.38;2.60;;;9.50;99.90;;;;;;5013702;28;20037;-78
2023/05/24 06:00:34;;;;;;;5.53;1.90;;;9.70;99.90;;;;;;5043882;28;20489;-78
2023/05/24 06:02:59;;;;;;;11.00;2.28;;;9.80;99.90;;;;;;5041926;28;20059;-77
2023/05/24 06:05:25;;;;;;;15.18;2.60;;;10.10;99.90;;;;;;5043209;28;20017;-80
2023/05/24 06:07:51;;;;;;;16.85;3.80;;;10.10;99.90;;;;;;5029777;28;20438;-78
2023/05/24 06:10:17;;;;;;;14.98;3.08;;;10.00;99.90;;;;;;5030582;28;20029;-78
2023/05/24 06:12:42;;;;;;;16.38;3.15;;;10.20;99.90;;;;;;5038051;28;20040;-78
2023/05/24 06:15:08;;;;;;;16.33;3.17;;;10.40;99.90;;;;;;5025466;28;20108;-80
2023/05/24 06:17:35;;;;;;;11.80;2.83;;;10.60;99.90;;;;;;5019632;28;20447;-79
2023/05/24 06:20:09;;;;;;;14.57;3.33;;;10.50;99.90;;;;;;5014221;28;20028;-80
2023/05/24 06:22:36;;;;;;;13.18;2.67;;;10.30;99.90;;;;;;5044772;28;20400;-79
2023/05/24 06:25:03;;;;;;;15.50;3.05;;;10.20;99.90;;;;;;5043865;28;20037;-79
2023/05/24 06:27:29;;;;;;;9.48;1.60;;;10.30;99.90;;;;;;5044768;28;20025;-79
2023/05/24 06:29:54;;;;;;;12.88;2.38;;;10.40;99.90;;;;;;5027264;28;20107;-78
2023/05/24 06:32:20;;;;;;;8.25;2.08;;;10.50;99.90;;;;;;5021301;28;20028;-78
2023/05/24 06:34:46;;;;;;;15.23;2.33;;;10.60;99.90;;;;;;5013991;28;20548;-79
2023/05/24 06:37:13;;;;;;;13.20;3.30;;;10.70;99.90;;;;;;5028047;28;20045;-80
2023/05/24 06:39:39;;;;;;;10.38;1.90;;;10.80;99.90;;;;;;5011654;28;20029;-78
2023/05/24 06:42:05;;;;;;;15.75;2.58;;;10.90;99.90;;;;;;5011397;28;20044;-79
2023/05/24 06:44:35;;;;;;;8.07;2.03;;;10.90;99.90;;;;;;5008953;28;20264;-79
2023/05/24 06:47:01;;;;;;;15.70;2.80;;;11.00;99.90;;;;;;5023641;28;20344;-79
2023/05/24 06:49:27;;;;;;;12.43;2.03;;;11.10;99.90;;;;;;5032400;28;20022;-79
2023/05/24 06:51:52;;;;;;;16.48;3.17;;;11.30;99.90;;;;;;5010330;28;20041;-81
2023/05/24 06:54:18;;;;;;;8.00;1.65;;;11.40;99.90;;;;;;5027001;28;20031;-81
2023/05/24 06:56:44;;;;;;;16.98;3.10;;;11.40;99.90;;;;;;5024468;28;20037;-82
2023/05/24 06:59:09;;;;;;;13.43;1.83;;;11.20;99.90;;;;;;5010364;28;20485;-80
2023/05/24 07:01:38;;;;;;;15.35;2.70;;;11.20;99.90;;;;;;5010074;28;20140;-82
2023/05/24 07:04:04;;;;;;;10.85;1.73;;;11.00;99.90;;;;;;5014945;28;20084;-82
2023/05/24 07:06:32;;;;;;;11.00;1.60;;;11.00;99.90;;;;;;5009919;28;20033;-81
2023/05/24 07:08:58;;;;;;;10.10;1.40;;;11.10;99.90;;;;;;5020930;28;20025;-83
2023/05/24 07:11:23;;;;;;;7.93;1.42;;;11.40;99.90;;;;;;5025701;28;20029;-80
2023/05/24 07:13:49;;;;;;;8.50;1.13;;;11.60;99.90;;;;;;5021889;28;20213;-81
2023/05/24 07:16:15;;;;;;;7.57;0.90;;;12.10;99.90;;;;;;5034475;28;20034;-82
2023/05/24 07:18:40;;;;;;;9.10;1.70;;;12.70;99.90;;;;;;5026707;28;20042;-82
2023/05/24 07:21:06;;;;;;;18.95;2.65;;;12.60;99.90;;;;;;5034369;28;20042;-81
2023/05/24 07:23:33;;;;;;;9.82;1.42;;;12.20;99.90;;;;;;5025951;28;20036;-81
2023/05/24 07:25:58;;;;;;;16.60;2.30;;;12.30;99.90;;;;;;5024792;28;20022;-83
2023/05/24 07:28:24;;;;;;;13.05;1.45;;;12.40;99.90;;;;;;5026749;28;20033;-81
2023/05/24 07:30:50;;;;;;;8.93;0.82;;;12.70;99.90;;;;;;5007193;28;20076;-82
2023/05/24 07:33:15;;;;;;;10.55;1.52;;;13.20;99.90;;;;;;5035572;28;20030;-81
2023/05/24 07:35:41;;;;;;;8.27;1.50;;;14.00;99.90;;;;;;5009977;28;20026;-79
2023/05/24 07:38:07;;;;;;;7.80;1.15;;;14.00;99.90;;;;;;5025362;28;20092;-80
2023/05/24 07:40:33;;;;;;;8.05;1.13;;;13.70;99.90;;;;;;5010271;28;20030;-82
2023/05/24 07:42:58;;;;;;;9.93;1.48;;;13.30;99.90;;;;;;5008013;28;20397;-80
2023/05/24 07:45:24;;;;;;;14.20;1.15;;;12.80;99.90;;;;;;5026304;28;20127;-80
2023/05/24 07:47:50;;;;;;;6.75;0.80;;;13.10;99.90;;;;;;5034692;28;20033;-78
2023/05/24 07:50:16;;;;;;;12.00;1.45;;;13.10;99.90;;;;;;5034953;28;20059;-78
2023/05/24 07:52:42;;;;;;;8.20;1.10;;;12.80;99.90;;;;;;5027886;28;20119;-79
2023/05/24 07:55:08;;;;;;;7.63;0.75;;;12.90;99.90;;;;;;5027816;28;20500;-78
2023/05/24 07:57:33;;;;;;;6.25;0.88;;;13.20;99.90;;;;;;5027858;28;20033;-79
2023/05/24 08:00:05;;;;;;;5.10;0.70;;;13.30;99.90;;;;;;5028153;28;20040;-80
2023/05/24 08:02:37;;;;;;;5.25;1.00;;;13.50;99.90;;;;;;5039038;28;20036;-79
2023/05/24 08:05:04;;;;;;;8.50;1.08;;;13.20;99.90;;;;;;5017846;28;20033;-78
2023/05/24 08:07:29;;;;;;;7.82;0.70;;;13.00;99.90;;;;;;5043250;28;20032;-79
2023/05/24 08:09:56;;;;;;;4.65;1.00;;;13.30;99.90;;;;;;5020286;28;20025;-79
2023/05/24 08:12:22;;;;;;;10.93;1.15;;;13.60;99.90;;;;;;5026481;28;20041;-78
2023/05/24 08:14:47;;;;;;;5.95;0.70;;;13.70;99.90;;;;;;5041249;28;20079;-78
2023/05/24 08:17:13;;;;;;;10.88;0.90;;;13.70;99.90;;;;;;5021550;28;20033;-79
2023/05/24 08:19:38;;;;;;;8.27;0.90;;;13.60;99.90;;;;;;5019000;28;20025;-79
2023/05/24 08:22:04;;;;;;;4.13;0.50;;;13.60;99.90;;;;;;5022249;28;20033;-79
2023/05/24 08:24:31;;;;;;;6.35;0.70;;;13.70;99.90;;;;;;5041171;28;20025;-79
2023/05/24 08:26:57;;;;;;;8.65;1.05;;;14.10;99.90;;;;;;5044576;28;20068;-80
2023/05/24 08:29:23;;;;;;;8.30;0.80;;;13.90;99.90;;;;;;5013581;28;20040;-82
2023/05/24 08:31:48;;;;;;;6.63;0.90;;;14.10;99.90;;;;;;5027561;28;20031;-81
2023/05/24 08:34:14;;;;;;;7.75;0.70;;;13.90;99.90;;;;;;5032514;28;20028;-81
2023/05/24 08:36:42;;;;;;;9.45;0.82;;;14.20;99.90;;;;;;5024350;28;20053;-79
2023/05/24 08:39:08;;;;;;;9.07;0.80;;;14.10;99.90;;;;;;5046326;28;20057;-82
2023/05/24 08:41:36;;;;;;;7.38;0.95;;;14.50;99.90;;;;;;5015309;28;20059;-82
2023/05/24 08:44:05;;;;;;;7.05;0.90;;;14.40;99.90;;;;;;5039533;28;20077;-82
2023/05/24 08:46:35;;;;;;;9.65;1.17;;;14.50;99.90;;;;;;5026623;28;20026;-81
2023/05/24 08:49:02;;;;;;;8.68;0.80;;;14.30;99.90;;;;;;5029914;28;20076;-82
2023/05/24 08:51:29;;;;;;;7.78;1.27;;;14.40;99.90;;;;;;5018411;28;20450;-82
2023/05/24 08:53:57;;;;;;;8.98;1.05;;;14.30;99.90;;;;;;5008634;28;20064;-82
2023/05/24 08:56:25;;;;;;;7.78;1.00;;;14.60;99.90;;;;;;5013390;28;20071;-82
2023/05/24 08:58:53;;;;;;;7.60;0.90;;;14.70;99.90;;;;;;5029560;28;20065;-78
2023/05/24 09:01:19;;;;;;;6.32;0.93;;;15.20;99.90;;;;;;5026597;28;20036;-81
2023/05/24 09:03:46;;;;;;;6.78;0.82;;;15.50;99.90;;;;;;5024735;28;20442;-82
2023/05/24 09:06:15;;;;;;;7.80;1.05;;;15.30;99.90;;;;;;5024164;28;20022;-80
2023/05/24 09:08:42;;;;;;;11.33;1.17;;;15.10;99.90;;;;;;5025671;28;20060;-79
2023/05/24 09:11:08;;;;;;;6.75;0.80;;;14.90;99.90;;;;;;5028305;28;20052;-79
2023/05/24 09:13:34;;;;;;;8.02;0.93;;;15.10;99.90;;;;;;5025563;28;20474;-79
2023/05/24 09:16:00;;;;;;;9.00;1.35;;;15.30;99.90;;;;;;5024626;28;20088;-79
2023/05/24 09:18:26;;;;;;;7.75;0.80;;;15.70;99.90;;;;;;5024534;28;20037;-79
2023/05/24 09:20:52;;;;;;;4.50;1.05;;;15.20;99.90;;;;;;5028005;28;20025;-79
2023/05/24 09:23:19;;;;;;;7.13;0.68;;;15.40;99.90;;;;;;5027205;28;20052;-78
2023/05/24 09:25:45;;;;;;;7.05;0.90;;;15.40;99.90;;;;;;5026746;28;20373;-78
2023/05/24 09:28:16;;;;;;;6.93;1.02;;;15.10;99.90;;;;;;5026509;28;20448;-82
2023/05/24 09:30:43;;;;;;;5.18;0.98;;;14.80;99.90;;;;;;5042689;28;20022;-80
2023/05/24 09:33:10;;;;;;;5.00;0.82;;;14.60;99.90;;;;;;5026062;28;20037;-79
2023/05/24 09:35:35;;;;;;;5.53;0.77;;;15.10;99.90;;;;;;5010751;28;20030;-79
2023/05/24 09:38:02;;;;;;;6.53;0.85;;;15.40;99.90;;;;;;5024479;28;20075;-79
2023/05/24 09:40:28;;;;;;;3.60;0.70;;;15.60;99.90;;;;;;5008875;28;20162;-79
2023/05/24 09:43:08;;;;;;;5.60;0.75;;;15.70;99.90;;;;;;5009037;28;20029;-80
2023/05/24 09:46:03;;;;;;;4.82;0.90;;;16.20;99.90;;;;;;5016372;28;20187;-82
2023/05/24 09:48:30;;;;;;;3.08;0.60;;;15.90;99.90;;;;;;5036898;28;20410;-80
2023/05/24 09:51:08;;;;;;;3.17;0.60;;;16.10;99.90;;;;;;5014704;28;20060;-81
2023/05/24 09:53:35;;;;;;;6.90;0.90;;;16.10;99.90;;;;;;5025529;28;20462;-79
2023/05/24 09:56:07;;;;;;;3.05;0.50;;;16.00;99.90;;;;;;5023447;28;20033;-79
2023/05/24 09:58:35;;;;;;;3.13;0.63;;;16.70;99.90;;;;;;5012815;28;20045;-80
2023/05/24 10:01:13;;;;;;;5.50;1.02;;;16.40;99.90;;;;;;5030509;28;20021;-82
2023/05/24 10:03:54;;;;;;;4.72;1.10;;;16.00;99.90;;;;;;5038912;28;20029;-81
2023/05/24 10:06:20;;;;;;;6.43;0.80;;;16.10;99.90;;;;;;5043542;28;20094;-81
2023/05/24 10:08:50;;;;;;;6.50;0.75;;;16.10;99.90;;;;;;5014186;28;20088;-81
2023/05/24 10:11:17;;;;;;;7.72;0.60;;;15.90;99.90;;;;;;5030212;28;20037;-82
2023/05/24 10:13:43;;;;;;;7.85;1.05;;;15.60;99.90;;;;;;5029688;28;20025;-81
2023/05/24 10:16:09;;;;;;;4.45;0.60;;;15.40;99.90;;;;;;5027989;28;20032;-82
2023/05/24 10:18:35;;;;;;;6.90;0.80;;;16.00;99.90;;;;;;5045139;28;20343;-81
2023/05/24 10:21:08;;;;;;;7.32;0.93;;;15.70;99.90;;;;;;5026539;28;20030;-82
2023/05/24 10:23:37;;;;;;;6.55;1.00;;;15.70;99.90;;;;;;5042726;28;20029;-82
2023/05/24 10:26:06;;;;;;;3.80;0.60;;;15.80;99.90;;;;;;5043508;28;20128;-82
2023/05/24 10:28:35;;;;;;;6.10;1.50;;;15.80;99.90;;;;;;5021442;28;20055;-79
2023/05/24 10:31:04;;;;;;;5.28;0.82;;;15.30;99.90;;;;;;5019408;28;20466;-79
2023/05/24 10:33:33;;;;;;;5.60;0.83;;;15.50;99.90;;;;;;5042154;28;20597;-78
2023/05/24 10:36:01;;;;;;;6.10;0.80;;;15.80;99.90;;;;;;5043029;28;20473;-80
2023/05/24 10:38:29;;;;;;;6.57;0.95;;;16.10;99.90;;;;;;5013959;28;20408;-82
2023/05/24 10:40:55;;;;;;;6.30;1.02;;;16.10;99.90;;;;;;5023882;28;20446;-79
2023/05/24 10:43:21;;;;;;;7.50;0.90;;;15.70;99.90;;;;;;5043375;28;20068;-78
2023/05/24 10:45:50;;;;;;;4.53;0.75;;;16.10;99.90;;;;;;5027792;28;20145;-79
2023/05/24 10:48:16;;;;;;;7.03;0.80;;;17.00;99.90;;;;;;5042253;28;20128;-79
2023/05/24 10:50:43;;;;;;;7.40;0.85;;;17.40;99.90;;;;;;5027912;28;20454;-79
2023/05/24 10:53:21;;;;;;;5.50;0.73;;;17.10;99.90;;;;;;5028464;28;20519;-79
2023/05/24 10:55:56;;;;;;;5.72;1.05;;;16.00;99.90;;;;;;5044070;28;20478;-79
2023/05/24 10:58:41;;;;;;;5.97;0.70;;;16.20;99.90;;;;;;5009637;28;20037;-79
2023/05/24 11:01:13;;;;;;;7.45;1.23;;;15.80;99.90;;;;;;5045332;28;20025;-79
2023/05/24 11:03:42;;;;;;;6.25;1.50;;;16.00;99.90;;;;;;5011161;28;20044;-79
2023/05/24 11:06:09;;;;;;;5.07;0.65;;;16.00;99.90;;;;;;5043154;28;20029;-79
2023/05/24 11:08:35;;;;;;;5.68;0.60;;;15.70;99.90;;;;;;5034761;28;20440;-79
2023/05/24 11:11:08;;;;;;;4.18;0.70;;;16.20;99.90;;;;;;5012786;28;20029;-79
2023/05/24 11:13:36;;;;;;;6.28;1.00;;;16.70;99.90;;;;;;5041467;28;20029;-79
2023/05/24 11:16:02;;;;;;;6.40;0.93;;;16.50;99.90;;;;;;5026704;28;20021;-80
2023/05/24 11:18:28;;;;;;;6.15;0.70;;;15.90;99.90;;;;;;5028769;28;20039;-79
2023/05/24 11:20:56;;;;;;;5.15;0.80;;;15.90;99.90;;;;;;5028287;28;20466;-80
2023/05/24 11:23:22;;;;;;;7.65;0.80;;;15.80;99.90;;;;;;5044251;28;20029;-79
2023/05/24 11:25:48;;;;;;;4.75;0.60;;;15.90;99.90;;;;;;5023806;28;20025;-78
2023/05/24 11:28:14;;;;;;;3.40;0.60;;;16.50;99.90;;;;;;5022991;28;20371;-79
2023/05/24 11:30:41;;;;;;;3.80;0.70;;;17.20;99.90;;;;;;5026695;28;20021;-79
2023/05/24 11:33:17;;;;;;;3.17;0.60;;;17.40;99.90;;;;;;5029371;28;20082;-79
2023/05/24 11:35:43;;;;;;;5.20;0.82;;;17.00;99.90;;;;;;5040968;28;20037;-79
2023/05/24 11:38:12;;;;;;;6.13;1.00;;;16.30;99.90;;;;;;5019942;28;20041;-81
2023/05/24 11:40:43;;;;;;;4.60;0.88;;;16.30;99.90;;;;;;5012038;28;20108;-81
2023/05/24 11:43:10;;;;;;;5.55;1.00;;;16.30;99.90;;;;;;5025050;28;20029;-82
2023/05/24 11:45:38;;;;;;;5.13;1.08;;;16.10;99.90;;;;;;5024363;28;20029;-82
2023/05/24 11:48:05;;;;;;;5.70;0.98;;;15.80;99.90;;;;;;5025877;28;20056;-80
2023/05/24 11:50:31;;;;;;;6.60;0.60;;;15.60;99.90;;;;;;5037969;28;20127;-78
2023/05/24 11:53:03;;;;;;;5.60;0.80;;;16.50;99.90;;;;;;5028430;28;20025;-79
2023/05/24 11:55:29;;;;;;;5.57;0.68;;;16.60;99.90;;;;;;5019996;28;20025;-78
2023/05/24 11:58:00;;;;;;;5.78;1.00;;;16.80;99.90;;;;;;5021093;28;20047;-79
2023/05/24 12:00:27;;;;;;;7.03;1.55;;;16.80;99.90;;;;;;5026426;28;20029;-78
2023/05/24 12:02:56;;;;;;;8.15;1.00;;;16.40;99.90;;;;;;5009815;28;20397;-78
2023/05/24 12:05:22;;;;;;;;;;;16.30;99.90;;;;;;5038877;28;20026;-81
2023/05/24 12:08:08;;;;;;;5.00;0.70;;;16.30;99.90;;;;;;5023839;28;19919;-79
2023/05/24 12:10:35;;;;;;;6.78;0.85;;;16.20;99.90;;;;;;5044669;28;20531;-79
2023/05/24 12:13:02;;;;;;;3.78;0.65;;;16.10;99.90;;;;;;5016758;28;20157;-79
2023/05/24 12:15:29;;;;;;;4.72;0.90;;;16.10;99.90;;;;;;5024278;28;20025;-79
2023/05/24 12:17:56;;;;;;;7.00;0.52;;;15.80;99.90;;;;;;5013882;28;20493;-79
2023/05/24 12:20:22;;;;;;;3.80;0.57;;;15.90;99.90;;;;;;5010636;28;20029;-79
2023/05/24 12:22:50;;;;;;;4.00;0.50;;;15.80;99.90;;;;;;5011520;28;20065;-77
2023/05/24 12:25:21;;;;;;;2.75;0.50;;;15.80;99.90;;;;;;5048192;28;20032;-79
2023/05/24 12:27:56;;;;;;;2.63;0.47;;;15.70;99.90;;;;;;5015555;28;20468;-78
2023/05/24 12:30:25;;;;;;;5.20;0.60;;;15.70;99.90;;;;;;5045089;28;20065;-79
2023/05/24 12:32:53;;;;;;;2.95;0.50;;;15.50;99.90;;;;;;5030711;28;20353;-79
2023/05/24 12:35:20;;;;;;;4.30;0.50;;;15.80;99.90;;;;;;5015125;28;20030;-79
2023/05/24 12:37:47;;;;;;;3.75;0.50;;;16.00;99.90;;;;;;5031834;28;20136;-79
2023/05/24 12:40:22;;;;;;;3.55;0.50;;;15.70;99.90;;;;;;5014760;28;20047;-78
2023/05/24 12:42:58;;;;;;;6.28;0.85;;;15.70;99.90;;;;;;5026020;28;20044;-79
2023/05/24 12:45:25;;;;;;;4.82;0.60;;;15.50;99.90;;;;;;5045675;28;20065;-80
2023/05/24 12:47:51;;;;;;;3.45;0.65;;;15.40;99.90;;;;;;5026861;28;20068;-79
2023/05/24 12:50:18;;;;;;;3.85;0.70;;;15.40;99.90;;;;;;5015747;28;20326;-79
2023/05/24 12:52:47;;;;;;;3.08;0.50;;;15.30;99.90;;;;;;5030860;28;20044;-78